HEMA

Marsa Alam International Airport

Marsa Alam, Egypt
METAR HEMA 211300Z 01013KT CAVOK 34/14 Q1005 NOSIG
Observed Flight Rules
Jul-21 @ 13:00 UTC (40 minutes ago) Visual Flight Rules
Wind Visibility Clouds
10° at 13 knots 10,000+ meters
  • Clear skies
Temperatures Readings
Current 34°C / 93°F
Dewpoint 14°C / 57°F
Humidity 30%
Altimeter 29.68" Hg
Pressure 1005 hPa
Elevation 77
METAR HEMA 211300Z 01013KT CAVOK 34/14 Q1005 NOSIG
Observed Flight Rules
Jul-21 @ 13:00 UTC
(40 minutes ago)
VFR
Wind Visibility
10° at 13 knots 10,000+ meters
Clouds
  • Clear skies
Temperature Dewpoint
34°C / 93°F 14°C / 57°F
Humidity Altimeter Pressure
30% 29.68" Hg 1005 hPa